Time;durP1;ratioP1;P1;durP2;ratioP2;P2;SDS_P1;SDS_P2;PMS_P1;PMS_P2;Temp;Humidity;BMP_temperature;BMP_pressure;BME280_temperature;BME280_humidity;BME280_pressure;Samples;Min_cycle;Max_cycle;Signal;HPM_P1;HPM_P2
2022/06/08 00:00:59;;;;;;;;;1.25;1.25;22.30;99.90;;;;;;4936629;28;8856;-48
2022/06/08 00:03:40;;;;;;;;;1.00;1.00;22.30;99.90;;;;;;4931446;28;8900;-49
2022/06/08 00:06:10;;;;;;;;;0.50;0.50;22.30;99.90;;;;;;4930680;28;8845;-50
2022/06/08 00:08:41;;;;;;;;;2.00;2.00;22.30;99.90;;;;;;4932575;28;8849;-51
2022/06/08 00:11:11;;;;;;;;;1.00;1.00;22.40;99.90;;;;;;4937623;28;9059;-51
2022/06/08 00:13:43;;;;;;;;;1.25;1.25;22.30;99.90;;;;;;4939136;28;9024;-50
2022/06/08 00:16:14;;;;;;;;;1.75;1.75;22.30;99.90;;;;;;4930903;28;8903;-51
2022/06/08 00:18:47;;;;;;;;;0.25;0.25;22.40;99.90;;;;;;4934986;28;8874;-49
2022/06/08 00:21:19;;;;;;;;;0.75;0.75;22.40;99.90;;;;;;4934025;28;8902;-52
2022/06/08 00:23:50;;;;;;;;;1.00;1.00;22.40;99.90;;;;;;4930046;28;8850;-49
2022/06/08 00:26:21;;;;;;;;;2.00;2.00;22.50;99.90;;;;;;4935080;28;8883;-48
2022/06/08 00:28:52;;;;;;;;;0.00;0.00;22.50;99.90;;;;;;4935297;28;8860;-50
2022/06/08 00:31:24;;;;;;;;;1.00;1.00;22.50;99.90;;;;;;4944971;28;8857;-48
2022/06/08 00:33:54;;;;;;;;;1.00;1.00;22.60;99.90;;;;;;4914893;28;8884;-50
2022/06/08 00:36:24;;;;;;;;;1.50;1.50;22.60;99.90;;;;;;4934460;28;8882;-50
2022/06/08 00:38:54;;;;;;;;;1.00;1.00;22.60;99.90;;;;;;4931038;28;8870;-49
2022/06/08 00:41:43;;;;;;;;;1.00;1.00;22.60;99.90;;;;;;4930490;28;8853;-50
2022/06/08 00:44:37;;;;;;;;;2.75;1.00;22.70;99.90;;;;;;4933992;28;8837;-53
2022/06/08 00:47:09;;;;;;;;;2.00;1.00;22.70;99.90;;;;;;4935393;28;8884;-52
2022/06/08 00:50:00;;;;;;;;;0.75;0.75;22.70;99.90;;;;;;4930131;28;8900;-49
2022/06/08 00:52:34;;;;;;;;;1.00;1.00;22.70;99.90;;;;;;4931225;28;8888;-56
2022/06/08 00:55:12;;;;;;;;;0.00;0.00;22.60;99.90;;;;;;4946703;28;8884;-52
2022/06/08 00:57:53;;;;;;;;;0.00;0.00;22.60;99.90;;;;;;4942001;28;8852;-51
2022/06/08 01:00:29;;;;;;;;;0.00;0.00;22.50;99.90;;;;;;4946432;28;8980;-52
2022/06/08 01:03:01;;;;;;;;;0.00;0.00;22.50;99.90;;;;;;4931000;28;8872;-48
2022/06/08 01:05:46;;;;;;;;;0.00;0.00;22.40;99.90;;;;;;4930188;28;8882;-51
2022/06/08 01:08:38;;;;;;;;;1.00;1.00;22.40;99.90;;;;;;4925406;28;8931;-51
2022/06/08 01:11:32;;;;;;;;;0.00;0.00;22.20;99.90;;;;;;4942101;28;9709;-51
2022/06/08 01:14:07;;;;;;;;;1.50;1.00;22.20;99.90;;;;;;4947920;28;9577;-52
2022/06/08 01:16:43;;;;;;;;;0.75;0.75;22.20;99.90;;;;;;4936401;28;8832;-48
2022/06/08 01:19:15;;;;;;;;;1.00;1.00;22.10;99.90;;;;;;4935462;28;9053;-49
2022/06/08 01:21:52;;;;;;;;;0.00;0.00;22.10;99.90;;;;;;4930677;28;8871;-52
2022/06/08 01:24:36;;;;;;;;;1.00;1.00;22.00;99.90;;;;;;4934633;28;8901;-52
2022/06/08 01:27:15;;;;;;;;;0.00;0.00;22.00;99.90;;;;;;4937582;28;9017;-49
2022/06/08 01:30:10;;;;;;;;;0.00;0.00;22.00;99.90;;;;;;4938449;28;8842;-52
2022/06/08 01:33:09;;;;;;;;;1.00;1.00;22.00;99.90;;;;;;4938117;28;8848;-51
2022/06/08 01:36:03;;;;;;;;;1.00;1.00;21.90;99.90;;;;;;4941965;28;8876;-49
2022/06/08 01:38:57;;;;;;;;;0.00;0.00;21.90;99.90;;;;;;4930761;28;8854;-51
2022/06/08 01:41:29;;;;;;;;;0.00;0.00;21.80;99.90;;;;;;4947275;28;9005;-51
2022/06/08 01:44:21;;;;;;;;;0.75;0.75;21.90;99.90;;;;;;4937482;28;8848;-49
2022/06/08 01:47:13;;;;;;;;;1.00;1.00;21.90;99.90;;;;;;4932922;28;8891;-48
2022/06/08 01:49:57;;;;;;;;;1.25;1.25;22.00;99.90;;;;;;4935547;28;8858;-49
2022/06/08 01:52:44;;;;;;;;;1.00;1.00;22.10;99.90;;;;;;4954603;28;8912;-51
2022/06/08 01:55:43;;;;;;;;;1.00;1.00;22.00;99.90;;;;;;4932732;28;8872;-51
2022/06/08 01:58:17;;;;;;;;;0.75;0.75;22.00;99.90;;;;;;4938279;28;8877;-51
2022/06/08 02:01:03;;;;;;;;;0.00;0.00;22.00;99.90;;;;;;4929613;28;8885;-52
2022/06/08 02:03:46;;;;;;;;;0.00;0.00;21.90;99.90;;;;;;4936805;28;8862;-51
2022/06/08 02:06:38;;;;;;;;;0.00;0.00;21.90;99.90;;;;;;4917840;28;8868;-50
2022/06/08 02:09:20;;;;;;;;;0.00;0.00;21.90;99.90;;;;;;4934268;28;8911;-52
2022/06/08 02:12:03;;;;;;;;;0.00;0.00;21.90;99.90;;;;;;4938428;28;8867;-51
2022/06/08 02:14:49;;;;;;;;;0.75;0.75;21.90;99.90;;;;;;4936219;28;8873;-50
2022/06/08 02:17:34;;;;;;;;;0.00;0.00;21.90;99.90;;;;;;4927192;28;9019;-57
2022/06/08 02:20:21;;;;;;;;;1.00;1.00;21.70;99.90;;;;;;4929023;28;8997;-57
2022/06/08 02:23:07;;;;;;;;;0.00;0.00;21.70;99.90;;;;;;4945050;28;8864;-52
2022/06/08 02:25:46;;;;;;;;;0.00;0.00;21.60;99.90;;;;;;4952537;28;8904;-50
2022/06/08 02:28:38;;;;;;;;;0.00;0.00;21.70;99.90;;;;;;4931619;28;8863;-54
2022/06/08 02:31:27;;;;;;;;;0.00;0.00;21.60;99.90;;;;;;4930326;28;8912;-53
2022/06/08 02:34:28;;;;;;;;;0.25;0.25;21.60;99.90;;;;;;4934453;28;8968;-53
2022/06/08 02:37:08;;;;;;;;;0.25;0.25;21.50;99.90;;;;;;4931449;28;8876;-54
2022/06/08 02:39:45;;;;;;;;;0.00;0.00;21.50;99.90;;;;;;4930780;28;8860;-49
2022/06/08 02:42:28;;;;;;;;;0.00;0.00;21.40;99.90;;;;;;4950140;28;8889;-51
2022/06/08 02:45:17;;;;;;;;;0.00;0.00;21.40;99.90;;;;;;4929438;28;8878;-51
2022/06/08 02:47:55;;;;;;;;;0.25;0.25;21.40;99.90;;;;;;4931332;28;8930;-51
2022/06/08 02:50:26;;;;;;;;;1.00;1.00;21.40;99.90;;;;;;4931778;28;8929;-54
2022/06/08 02:53:29;;;;;;;;;0.00;0.00;21.40;99.90;;;;;;4923483;28;8840;-54
2022/06/08 02:56:24;;;;;;;;;0.00;0.00;21.30;99.90;;;;;;4934764;28;8872;-52
2022/06/08 02:59:31;;;;;;;;;0.00;0.00;21.20;99.90;;;;;;4925717;28;8880;-49
2022/06/08 03:02:07;;;;;;;;;0.00;0.00;21.20;99.90;;;;;;4910673;28;9591;-52
2022/06/08 03:04:54;;;;;;;;;0.00;0.00;21.20;99.90;;;;;;4919951;28;8900;-52
2022/06/08 03:07:54;;;;;;;;;0.00;0.00;21.00;99.90;;;;;;4929897;28;8872;-51
2022/06/08 03:10:27;;;;;;;;;0.00;0.00;21.00;99.90;;;;;;4904536;28;8939;-53
2022/06/08 03:13:09;;;;;;;;;0.00;0.00;21.00;99.90;;;;;;4931029;28;8888;-47
2022/06/08 03:15:42;;;;;;;;;0.00;0.00;20.90;99.90;;;;;;4932413;28;8898;-51
2022/06/08 03:18:12;;;;;;;;;0.00;0.00;20.80;99.90;;;;;;4943466;28;8991;-53
2022/06/08 03:20:44;;;;;;;;;0.33;0.33;20.80;99.90;;;;;;4938155;28;8971;-53
2022/06/08 03:23:18;;;;;;;;;0.00;0.00;20.70;99.90;;;;;;4942643;28;9025;-53
2022/06/08 03:25:48;;;;;;;;;0.00;0.00;20.70;99.90;;;;;;4935332;28;8978;-51
2022/06/08 03:28:19;;;;;;;;;1.50;1.00;20.70;99.90;;;;;;4941137;28;8856;-50
2022/06/08 03:30:52;;;;;;;;;0.00;0.00;20.60;99.90;;;;;;4933889;28;9663;-51
2022/06/08 03:33:24;;;;;;;;;0.00;0.00;20.60;99.90;;;;;;4938962;28;8943;-54
2022/06/08 03:35:57;;;;;;;;;0.00;0.00;20.50;99.90;;;;;;4939992;28;8970;-53
2022/06/08 03:38:28;;;;;;;;;0.00;0.00;20.50;99.90;;;;;;4932663;28;9089;-53
2022/06/08 03:41:00;;;;;;;;;1.00;1.00;20.50;99.90;;;;;;4954172;28;9117;-52
2022/06/08 03:43:30;;;;;;;;;0.33;0.33;20.30;99.90;;;;;;4942337;28;9112;-50
2022/06/08 03:46:04;;;;;;;;;2.33;1.00;20.30;99.90;;;;;;4939380;28;9233;-49
2022/06/08 03:48:36;;;;;;;;;0.00;0.00;20.30;99.90;;;;;;4935338;28;8939;-52
2022/06/08 03:51:08;;;;;;;;;0.00;0.00;20.30;99.90;;;;;;4939710;28;9364;-49
2022/06/08 03:53:53;;;;;;;;;0.00;0.00;20.20;99.90;;;;;;4932456;28;9414;-52
2022/06/08 03:56:28;;;;;;;;;0.33;0.33;20.20;99.90;;;;;;4932772;28;9114;-52
2022/06/08 03:58:58;;;;;;;;;2.00;0.00;20.10;99.90;;;;;;4927629;28;9301;-52
2022/06/08 04:01:30;;;;;;;;;0.00;0.00;20.10;99.90;;;;;;4937650;28;9118;-51
2022/06/08 04:04:04;;;;;;;;;0.00;0.00;20.10;99.90;;;;;;4936766;28;9239;-52
2022/06/08 04:06:36;;;;;;;;;0.00;0.00;20.10;99.90;;;;;;4938770;28;9980;-52
2022/06/08 04:09:09;;;;;;;;;0.00;0.00;19.90;99.90;;;;;;4947269;28;9296;-52
2022/06/08 04:11:40;;;;;;;;;2.00;0.00;20.00;99.90;;;;;;4954759;28;9389;-52
2022/06/08 04:14:11;;;;;;;;;0.00;0.00;20.00;99.90;;;;;;4928618;28;9115;-50
2022/06/08 04:16:44;;;;;;;;;1.00;1.00;19.90;99.90;;;;;;4946917;28;9397;-53
2022/06/08 04:19:19;;;;;;;;;0.67;0.00;19.90;99.90;;;;;;4952859;28;9469;-53
2022/06/08 04:21:50;;;;;;;;;0.00;0.00;19.90;99.90;;;;;;4952267;28;9371;-53
2022/06/08 04:24:23;;;;;;;;;0.00;0.00;19.90;99.90;;;;;;4931745;28;9217;-53
2022/06/08 04:26:57;;;;;;;;;0.00;0.00;19.80;99.90;;;;;;4937997;28;9384;-53
2022/06/08 04:29:37;;;;;;;;;0.00;0.00;19.80;99.90;;;;;;4929700;28;9239;-50
2022/06/08 04:32:09;;;;;;;;;0.00;0.00;19.70;99.90;;;;;;4928874;28;9360;-51
2022/06/08 04:34:43;;;;;;;;;0.00;0.00;19.70;99.90;;;;;;4947268;28;9348;-53
2022/06/08 04:37:15;;;;;;;;;0.00;0.00;19.70;99.90;;;;;;4940439;28;10180;-52
2022/06/08 04:39:50;;;;;;;;;0.00;0.00;19.60;99.90;;;;;;4934016;28;9405;-50
2022/06/08 04:42:26;;;;;;;;;1.00;1.00;19.60;99.90;;;;;;4933241;28;9541;-53
2022/06/08 04:45:00;;;;;;;;;0.00;0.00;19.60;99.90;;;;;;4932044;28;9409;-51
2022/06/08 04:47:30;;;;;;;;;0.00;0.00;19.60;99.90;;;;;;4921312;28;9426;-54
2022/06/08 04:50:01;;;;;;;;;0.00;0.00;19.60;99.90;;;;;;4926505;28;9615;-54
2022/06/08 04:52:31;;;;;;;;;2.00;1.00;19.60;99.90;;;;;;4922913;28;9319;-51
2022/06/08 04:55:09;;;;;;;;;0.00;0.00;19.50;99.90;;;;;;4934725;28;9531;-50
2022/06/08 04:57:39;;;;;;;;;0.00;0.00;19.40;99.90;;;;;;4925648;28;9450;-53
2022/06/08 05:00:17;;;;;;;;;0.00;0.00;19.50;99.90;;;;;;4944355;28;9460;-50
2022/06/08 05:02:49;;;;;;;;;0.00;0.00;19.40;99.90;;;;;;4923340;28;9575;-51
2022/06/08 05:05:32;;;;;;;;;0.00;0.00;19.40;99.90;;;;;;4929381;28;9461;-53
2022/06/08 05:08:04;;;;;;;;;1.00;1.00;19.40;99.90;;;;;;4931442;28;9505;-53
2022/06/08 05:10:39;;;;;;;;;1.00;1.00;19.40;99.90;;;;;;4931349;28;9501;-51
2022/06/08 05:13:13;;;;;;;;;0.00;0.00;19.40;99.90;;;;;;4935650;28;9507;-53
2022/06/08 05:15:47;;;;;;;;;0.00;0.00;19.30;99.90;;;;;;4943069;28;10199;-50
2022/06/08 05:18:20;;;;;;;;;2.00;0.00;19.30;99.90;;;;;;4941565;28;10166;-51
2022/06/08 05:20:54;;;;;;;;;0.00;0.00;19.30;99.90;;;;;;4944209;28;9245;-51
2022/06/08 05:23:31;;;;;;;;;1.33;0.33;19.30;99.90;;;;;;4930431;28;9672;-51
2022/06/08 05:26:05;;;;;;;;;0.00;0.00;19.20;99.90;;;;;;4929871;28;9631;-51
2022/06/08 05:28:35;;;;;;;;;0.00;0.00;19.20;99.90;;;;;;4950716;28;9424;-52
2022/06/08 05:31:09;;;;;;;;;0.00;0.00;19.20;99.90;;;;;;4932038;28;9499;-54
2022/06/08 05:33:43;;;;;;;;;0.00;0.00;19.20;99.90;;;;;;4931547;28;9700;-51
2022/06/08 05:36:18;;;;;;;;;1.00;1.00;19.10;99.90;;;;;;4945032;28;10336;-53
2022/06/08 05:38:52;;;;;;;;;0.00;0.00;19.10;99.90;;;;;;4948934;28;9498;-50
2022/06/08 05:41:29;;;;;;;;;0.00;0.00;19.10;99.90;;;;;;4926075;28;9573;-52
2022/06/08 05:44:01;;;;;;;;;0.00;0.00;19.00;99.90;;;;;;4940486;28;9433;-50
2022/06/08 05:46:32;;;;;;;;;1.67;0.00;19.00;99.90;;;;;;4939789;28;10377;-52
2022/06/08 05:49:08;;;;;;;;;0.00;0.00;19.00;99.90;;;;;;4936211;28;9730;-51
2022/06/08 05:51:41;;;;;;;;;0.00;0.00;19.00;99.90;;;;;;4945616;28;10518;-51
2022/06/08 05:54:17;;;;;;;;;0.00;0.00;18.90;99.90;;;;;;4947552;28;9605;-51
2022/06/08 05:56:47;;;;;;;;;0.67;0.67;19.00;99.90;;;;;;4943565;28;9802;-49
2022/06/08 05:59:21;;;;;;;;;0.00;0.00;18.90;99.90;;;;;;4920346;28;9726;-55
2022/06/08 06:01:51;;;;;;;;;0.00;0.00;18.90;99.90;;;;;;4946301;28;9574;-50
2022/06/08 06:04:22;;;;;;;;;0.00;0.00;18.90;99.90;;;;;;4945447;28;9540;-54
2022/06/08 06:06:53;;;;;;;;;0.00;0.00;18.90;99.90;;;;;;4936178;28;9492;-51
2022/06/08 06:09:23;;;;;;;;;0.00;0.00;18.80;99.90;;;;;;4927460;28;9821;-51
2022/06/08 06:11:54;;;;;;;;;1.00;1.00;18.80;99.90;;;;;;4934581;28;12071;-53
2022/06/08 06:14:32;;;;;;;;;0.50;0.50;18.80;99.90;;;;;;4935046;28;9718;-53
2022/06/08 06:17:02;;;;;;;;;1.00;0.50;18.80;99.90;;;;;;4933463;28;10654;-53
2022/06/08 06:19:33;;;;;;;;;0.00;0.00;18.80;99.90;;;;;;4943439;28;9663;-51
2022/06/08 06:22:15;;;;;;;;;0.00;0.00;18.80;99.90;;;;;;4932909;28;9716;-51
2022/06/08 06:25:10;;;;;;;;;0.00;0.00;18.70;99.90;;;;;;4933351;28;10557;-49
2022/06/08 06:27:51;;;;;;;;;0.00;0.00;18.70;99.90;;;;;;4929906;28;9870;-51
2022/06/08 06:30:41;;;;;;;;;0.50;0.50;18.60;99.90;;;;;;4928932;28;10008;-50
2022/06/08 06:33:24;;;;;;;;;0.00;0.00;18.60;99.90;;;;;;4930913;28;10035;-52
2022/06/08 06:35:54;;;;;;;;;0.50;0.50;18.60;99.90;;;;;;4927742;28;9939;-53
2022/06/08 06:38:24;;;;;;;;;0.00;0.00;18.60;99.90;;;;;;4949441;28;9963;-50
2022/06/08 06:40:56;;;;;;;;;1.33;0.33;18.60;99.90;;;;;;4931477;28;9959;-52
2022/06/08 06:43:28;;;;;;;;;0.75;0.75;18.60;99.90;;;;;;4941087;28;9814;-48
2022/06/08 06:46:21;;;;;;;;;0.50;0.50;18.60;99.90;;;;;;4925322;28;10085;-52
2022/06/08 06:49:04;;;;;;;;;0.50;0.50;18.60;99.90;;;;;;4935849;28;10923;-52
2022/06/08 06:51:34;;;;;;;;;0.50;0.00;18.60;99.90;;;;;;4934068;28;10060;-53
2022/06/08 06:54:08;;;;;;;;;1.00;1.00;18.50;99.90;;;;;;4932390;28;10054;-51
2022/06/08 06:56:39;;;;;;;;;0.25;0.25;18.50;99.90;;;;;;4939247;28;10249;-52
2022/06/08 06:59:16;;;;;;;;;0.25;0.25;18.50;99.90;;;;;;4945998;28;10160;-54
2022/06/08 07:01:48;;;;;;;;;0.50;0.50;18.40;99.90;;;;;;4932037;28;10156;-52
2022/06/08 07:04:19;;;;;;;;;0.50;0.50;18.40;99.90;;;;;;4941847;28;10111;-52
2022/06/08 07:06:51;;;;;;;;;1.50;1.50;18.40;99.90;;;;;;4926463;28;10028;-53
2022/06/08 07:09:22;;;;;;;;;1.50;1.50;18.40;99.90;;;;;;4934134;28;13580;-52
2022/06/08 07:11:54;;;;;;;;;4.00;4.00;18.40;99.90;;;;;;4953749;28;10299;-51
2022/06/08 07:14:29;;;;;;;;;5.00;5.00;18.40;99.90;;;;;;4927373;28;10491;-52
2022/06/08 07:17:03;;;;;;;;;5.50;5.50;18.40;99.90;;;;;;4932700;28;10351;-52
2022/06/08 07:19:38;;;;;;;;;8.50;8.50;18.40;99.90;;;;;;4929367;28;10427;-52
2022/06/08 07:22:11;;;;;;;;;9.00;9.00;18.40;99.90;;;;;;4934199;28;10562;-53
2022/06/08 07:24:42;;;;;;;;;8.00;8.00;18.30;99.90;;;;;;4923183;28;10953;-53
2022/06/08 07:27:13;;;;;;;;;9.50;9.50;18.30;99.90;;;;;;4928473;28;10331;-52
2022/06/08 07:29:44;;;;;;;;;9.75;9.75;18.30;99.90;;;;;;4929911;28;10740;-53
2022/06/08 07:32:13;;;;;;;;;7.25;7.25;18.30;99.90;;;;;;4927062;28;10650;-50
2022/06/08 07:34:44;;;;;;;;;7.25;7.25;18.30;99.90;;;;;;4929713;28;10650;-52
2022/06/08 07:37:15;;;;;;;;;7.00;7.00;18.30;99.90;;;;;;4927417;28;10460;-52
2022/06/08 07:39:45;;;;;;;;;3.50;3.50;18.30;99.90;;;;;;4923105;28;11230;-49
2022/06/08 07:42:16;;;;;;;;;3.00;3.00;18.30;99.90;;;;;;4933153;28;10594;-52
2022/06/08 07:44:46;;;;;;;;;1.25;1.25;18.20;99.90;;;;;;4932399;28;10561;-52
2022/06/08 07:47:16;;;;;;;;;1.00;1.00;18.20;99.90;;;;;;4930624;28;10348;-52
2022/06/08 07:49:51;;;;;;;;;0.25;0.25;18.20;99.90;;;;;;4929500;28;10202;-54
2022/06/08 07:52:23;;;;;;;;;0.00;0.00;18.20;99.90;;;;;;4931200;28;10118;-50
2022/06/08 07:54:54;;;;;;;;;0.50;0.50;18.10;99.90;;;;;;4932503;28;10200;-53
2022/06/08 07:57:26;;;;;;;;;1.00;1.00;18.10;99.90;;;;;;4935260;28;9905;-53
2022/06/08 07:59:58;;;;;;;;;0.00;0.00;18.10;99.90;;;;;;4938037;28;10288;-53
2022/06/08 08:02:29;;;;;;;;;0.00;0.00;18.10;99.90;;;;;;4930540;28;10213;-50
2022/06/08 08:05:00;;;;;;;;;0.75;0.50;18.10;99.90;;;;;;4943303;28;10057;-53
2022/06/08 08:07:31;;;;;;;;;1.00;1.00;18.10;99.90;;;;;;4927920;28;9984;-50
2022/06/08 08:10:01;;;;;;;;;1.00;1.00;18.10;99.90;;;;;;4929648;28;9788;-53
2022/06/08 08:12:32;;;;;;;;;1.00;1.00;18.10;99.90;;;;;;4932783;28;10064;-54
2022/06/08 08:15:03;;;;;;;;;0.00;0.00;18.10;99.90;;;;;;4932152;28;9993;-53
2022/06/08 08:17:33;;;;;;;;;0.00;0.00;18.10;99.90;;;;;;4926060;28;9883;-52
2022/06/08 08:20:06;;;;;;;;;0.00;0.00;18.00;99.90;;;;;;4936136;28;9724;-51
2022/06/08 08:22:35;;;;;;;;;0.50;0.50;18.00;99.90;;;;;;4934151;28;9799;-53
2022/06/08 08:25:06;;;;;;;;;1.00;1.00;18.00;99.90;;;;;;4931956;28;9889;-53
2022/06/08 08:27:37;;;;;;;;;0.00;0.00;18.00;99.90;;;;;;4937406;28;9832;-53
2022/06/08 08:30:09;;;;;;;;;0.75;0.75;18.00;99.90;;;;;;4928938;28;9875;-52
2022/06/08 08:32:42;;;;;;;;;0.25;0.25;17.90;99.90;;;;;;4934365;28;9848;-50
2022/06/08 08:35:14;;;;;;;;;0.00;0.00;17.90;99.90;;;;;;4930899;28;9797;-51
2022/06/08 08:37:46;;;;;;;;;1.75;0.00;17.90;99.90;;;;;;4939844;28;9902;-51
2022/06/08 08:40:28;;;;;;;;;0.00;0.00;17.90;99.90;;;;;;4932611;28;9862;-52
2022/06/08 08:42:58;;;;;;;;;0.00;0.00;17.80;99.90;;;;;;4933488;28;9924;-49
2022/06/08 08:45:32;;;;;;;;;0.25;0.25;17.80;99.90;;;;;;4932222;28;10110;-52
2022/06/08 08:48:13;;;;;;;;;0.00;0.00;17.80;99.90;;;;;;4933686;28;9805;-52
2022/06/08 08:50:44;;;;;;;;;0.00;0.00;17.80;99.90;;;;;;4927263;28;9804;-52
2022/06/08 08:53:25;;;;;;;;;0.00;0.00;17.80;99.90;;;;;;4929294;28;9931;-50
2022/06/08 08:56:03;;;;;;;;;0.00;0.00;17.80;99.90;;;;;;4938015;28;10027;-50
2022/06/08 08:58:41;;;;;;;;;0.00;0.00;17.80;99.90;;;;;;4928809;28;10120;-52
2022/06/08 09:01:21;;;;;;;;;0.00;0.00;17.70;99.90;;;;;;4940421;28;10042;-51
2022/06/08 09:04:29;;;;;;;;;0.00;0.00;17.70;99.90;;;;;;4922217;28;10212;-54
2022/06/08 09:07:05;;;;;;;;;0.00;0.00;17.70;99.90;;;;;;4913032;29;10074;-52
2022/06/08 09:09:35;;;;;;;;;0.00;0.00;17.70;99.90;;;;;;4929319;28;10138;-50
2022/06/08 09:12:18;;;;;;;;;0.00;0.00;17.70;99.90;;;;;;4939057;28;10095;-50
2022/06/08 09:15:01;;;;;;;;;0.00;0.00;17.70;99.90;;;;;;4930801;28;10233;-51
2022/06/08 09:17:39;;;;;;;;;0.00;0.00;17.70;99.90;;;;;;4929938;28;9871;-51
2022/06/08 09:20:17;;;;;;;;;0.00;0.00;17.70;99.90;;;;;;4925892;28;9976;-50
2022/06/08 09:22:52;;;;;;;;;3.00;0.00;17.70;99.90;;;;;;4929268;28;9886;-51
2022/06/08 09:25:30;;;;;;;;;0.00;0.00;17.60;99.90;;;;;;4926413;28;10632;-52
2022/06/08 09:28:01;;;;;;;;;0.00;0.00;17.70;99.90;;;;;;4936952;28;10003;-51
2022/06/08 09:30:46;;;;;;;;;1.25;0.00;17.70;99.90;;;;;;4929391;28;10505;-52
2022/06/08 09:33:38;;;;;;;;;0.00;0.00;17.60;99.90;;;;;;4927844;28;10128;-51
2022/06/08 09:36:25;;;;;;;;;0.00;0.00;17.60;99.90;;;;;;4932301;28;10004;-48
2022/06/08 09:38:57;;;;;;;;;0.00;0.00;17.60;99.90;;;;;;4933658;28;10305;-50
2022/06/08 09:41:36;;;;;;;;;0.75;0.75;17.60;99.90;;;;;;4921477;28;10022;-50
2022/06/08 09:44:09;;;;;;;;;0.50;0.50;17.60;99.90;;;;;;4934335;28;10597;-50
2022/06/08 09:53:47;;;;;;;;;0.00;0.00;17.50;99.90;;;;;;4927836;28;9974;-55
2022/06/08 09:56:24;;;;;;;;;0.00;0.00;17.50;99.90;;;;;;4933211;28;10157;-52
2022/06/08 09:59:36;;;;;;;;;0.00;0.00;17.40;99.90;;;;;;4928633;28;10196;-49
2022/06/08 10:02:32;;;;;;;;;4.00;4.00;17.40;99.90;;;;;;4928685;28;10338;-52
2022/06/08 10:05:25;;;;;;;;;8.00;4.50;17.40;99.90;;;;;;4924023;28;10523;-51
2022/06/08 10:07:58;;;;;;;;;3.25;2.00;17.50;99.90;;;;;;4932215;28;10487;-51
2022/06/08 10:10:43;;;;;;;;;1.00;1.00;17.40;99.90;;;;;;4935861;28;10445;-52
2022/06/08 10:13:34;;;;;;;;;1.00;1.00;17.40;99.90;;;;;;4933611;28;10296;-52
2022/06/08 10:16:29;;;;;;;;;0.75;0.75;17.30;99.90;;;;;;4926362;28;10165;-54
2022/06/08 10:19:07;;;;;;;;;1.00;0.75;17.30;99.90;;;;;;4924978;28;10263;-49
2022/06/08 10:21:44;;;;;;;;;2.25;0.75;17.30;99.90;;;;;;4931639;28;10325;-52
2022/06/08 10:24:27;;;;;;;;;1.75;1.00;17.30;99.90;;;;;;4934043;28;10144;-52
2022/06/08 10:27:20;;;;;;;;;1.25;1.25;17.30;99.90;;;;;;4940443;28;10120;-51
2022/06/08 10:30:07;;;;;;;;;0.00;0.00;17.30;99.90;;;;;;4931830;28;10127;-52
2022/06/08 10:32:45;;;;;;;;;0.00;0.00;17.20;99.90;;;;;;4938731;28;10340;-51
2022/06/08 10:35:31;;;;;;;;;1.25;1.25;17.20;99.90;;;;;;4949883;28;10400;-52
2022/06/08 10:38:02;;;;;;;;;2.25;2.25;17.20;99.90;;;;;;4930019;28;10369;-49
2022/06/08 10:40:53;;;;;;;;;1.75;1.75;17.20;99.90;;;;;;4934162;28;10042;-49
2022/06/08 10:43:27;;;;;;;;;2.25;2.25;17.20;99.90;;;;;;4926539;28;11082;-52
2022/06/08 10:46:06;;;;;;;;;4.50;3.00;17.20;99.90;;;;;;4933827;28;10465;-47
2022/06/08 10:48:43;;;;;;;;;3.75;2.25;17.20;99.90;;;;;;4921777;28;10634;-54
2022/06/08 10:51:18;;;;;;;;;3.25;3.00;17.20;99.90;;;;;;4936207;28;10643;-53
2022/06/08 10:56:59;;;;;;;;;3.00;3.00;17.20;99.90;;;;;;4932774;28;10577;-52
2022/06/08 10:59:31;;;;;;;;;2.25;2.25;17.20;99.90;;;;;;4931795;28;10846;-52
2022/06/08 11:02:24;;;;;;;;;2.50;2.50;17.20;99.90;;;;;;4938686;28;10506;-52
2022/06/08 11:05:08;;;;;;;;;3.50;3.50;17.20;99.90;;;;;;4932182;28;10891;-53
2022/06/08 11:08:07;;;;;;;;;3.75;3.75;17.10;99.90;;;;;;4934962;28;10793;-49
2022/06/08 11:10:44;;;;;;;;;5.00;5.00;17.10;99.90;;;;;;4929168;28;10792;-48
2022/06/08 11:13:25;;;;;;;;;6.50;6.50;17.10;99.90;;;;;;4935878;28;10974;-53
2022/06/08 11:16:18;;;;;;;;;6.00;6.00;17.10;99.90;;;;;;4944978;28;11612;-49
2022/06/08 11:19:15;;;;;;;;;5.75;5.75;17.10;99.90;;;;;;4931182;28;11785;-51
2022/06/08 11:22:13;;;;;;;;;5.75;5.25;17.10;99.90;;;;;;4935633;28;11683;-52
2022/06/08 11:24:51;;;;;;;;;4.00;4.00;17.10;99.90;;;;;;4936132;28;11555;-50
2022/06/08 11:27:26;;;;;;;;;6.00;6.00;17.00;99.90;;;;;;4928565;28;10950;-48
2022/06/08 11:29:59;;;;;;;;;5.50;5.50;17.00;99.90;;;;;;4932125;28;10810;-50
2022/06/08 11:32:54;;;;;;;;;6.75;6.75;17.00;99.90;;;;;;4940766;28;10760;-50
2022/06/08 11:35:42;;;;;;;;;6.00;6.00;16.90;99.90;;;;;;4928379;28;11112;-52
2022/06/08 11:38:36;;;;;;;;;5.50;5.50;16.90;99.90;;;;;;4929103;28;11165;-50
2022/06/08 11:41:33;;;;;;;;;7.00;7.00;16.90;99.90;;;;;;4930251;28;10947;-52
2022/06/08 11:44:16;;;;;;;;;6.00;6.00;16.90;99.90;;;;;;4939969;28;11062;-52
2022/06/08 11:46:51;;;;;;;;;5.75;5.75;16.90;99.90;;;;;;4930557;28;11613;-53
2022/06/08 11:49:43;;;;;;;;;7.50;6.25;16.80;99.90;;;;;;4936839;28;10965;-50
2022/06/08 11:52:35;;;;;;;;;4.25;4.25;16.80;99.90;;;;;;4945588;28;10853;-50
2022/06/08 11:55:12;;;;;;;;;3.50;3.50;16.90;99.90;;;;;;4933659;28;11378;-52
2022/06/08 11:57:50;;;;;;;;;3.50;3.50;16.90;99.90;;;;;;4932154;28;10826;-53
2022/06/08 12:00:23;;;;;;;;;4.75;4.75;16.80;99.90;;;;;;4938886;28;10996;-51
2022/06/08 12:02:58;;;;;;;;;2.00;2.00;16.80;99.90;;;;;;4937872;28;10949;-51
2022/06/08 12:05:32;;;;;;;;;3.25;1.75;16.80;99.90;;;;;;4941639;28;10930;-52
2022/06/08 12:08:18;;;;;;;;;2.00;2.00;16.80;99.90;;;;;;4937954;28;10959;-51
2022/06/08 12:11:12;;;;;;;;;1.50;1.50;16.80;99.90;;;;;;4927579;28;11763;-52
2022/06/08 12:14:14;;;;;;;;;2.25;2.25;16.70;99.90;;;;;;4933797;28;10894;-50
2022/06/08 12:17:04;;;;;;;;;2.25;2.25;16.70;99.90;;;;;;4933024;28;10818;-51
2022/06/08 12:19:47;;;;;;;;;2.50;1.50;16.70;99.90;;;;;;4934046;28;10899;-49
2022/06/08 12:22:27;;;;;;;;;2.50;2.50;16.70;99.90;;;;;;4927948;28;10836;-53
2022/06/08 12:25:08;;;;;;;;;2.00;2.00;16.60;99.90;;;;;;4935357;28;11030;-49
2022/06/08 12:27:52;;;;;;;;;2.00;2.00;16.60;99.90;;;;;;4935254;28;10858;-53
2022/06/08 12:30:48;;;;;;;;;2.25;1.00;16.60;99.90;;;;;;4928793;28;10959;-49
2022/06/08 12:33:19;;;;;;;;;0.25;0.25;16.60;99.90;;;;;;4927618;28;10929;-48
2022/06/08 12:36:20;;;;;;;;;0.00;0.00;16.60;99.90;;;;;;4935304;28;10487;-52
2022/06/08 12:39:18;;;;;;;;;4.50;1.75;16.60;99.90;;;;;;4930025;28;10327;-52
2022/06/08 12:41:52;;;;;;;;;2.00;0.75;16.60;99.90;;;;;;4930602;28;10348;-47
2022/06/08 12:44:28;;;;;;;;;3.25;1.00;16.60;99.90;;;;;;4925052;28;10296;-51
2022/06/08 12:47:15;;;;;;;;;1.25;1.25;16.60;99.90;;;;;;4931989;28;11098;-51
2022/06/08 12:50:12;;;;;;;;;0.25;0.25;16.60;99.90;;;;;;4928907;28;11355;-52
2022/06/08 12:52:43;;;;;;;;;0.00;0.00;16.60;99.90;;;;;;4926771;28;10447;-50
2022/06/08 12:55:20;;;;;;;;;0.00;0.00;16.50;99.90;;;;;;4934547;28;10530;-48
2022/06/08 12:57:51;;;;;;;;;0.25;0.25;16.60;99.90;;;;;;4933984;28;10513;-51
2022/06/08 13:00:25;;;;;;;;;2.00;0.75;16.60;99.90;;;;;;4937753;28;10062;-53
2022/06/08 13:02:57;;;;;;;;;0.00;0.00;16.60;99.90;;;;;;4924811;28;10348;-50
2022/06/08 13:05:31;;;;;;;;;2.00;2.00;16.60;99.90;;;;;;4928082;28;10251;-50
2022/06/08 13:08:03;;;;;;;;;1.00;1.00;16.60;99.90;;;;;;4935045;28;10441;-52
2022/06/08 13:10:33;;;;;;;;;2.50;2.00;16.60;99.90;;;;;;4927504;28;11110;-53
2022/06/08 13:13:07;;;;;;;;;1.00;1.00;16.60;99.90;;;;;;4927319;28;10372;-52
2022/06/08 13:15:42;;;;;;;;;0.75;0.75;16.60;99.90;;;;;;4934610;28;10545;-50
2022/06/08 13:18:20;;;;;;;;;2.00;1.25;16.50;99.90;;;;;;4930774;28;10420;-49
2022/06/08 13:20:52;;;;;;;;;0.75;0.75;16.60;99.90;;;;;;4929018;28;10439;-52
2022/06/08 13:23:24;;;;;;;;;0.00;0.00;16.50;99.90;;;;;;4927607;28;10324;-53
2022/06/08 13:25:56;;;;;;;;;1.00;1.00;16.50;99.90;;;;;;4933712;28;10314;-54
2022/06/08 13:28:30;;;;;;;;;3.00;1.25;16.60;99.90;;;;;;4929355;28;10302;-52
2022/06/08 13:31:01;;;;;;;;;3.75;1.00;16.50;99.90;;;;;;4938314;28;10250;-50
2022/06/08 13:36:26;;;;;;;;;1.50;1.50;16.50;99.90;;;;;;4930283;28;10535;-51
2022/06/08 13:39:15;;;;;;;;;1.00;1.00;16.60;99.90;;;;;;4931763;28;10358;-50
2022/06/08 13:41:46;;;;;;;;;1.00;1.00;16.60;99.90;;;;;;4931505;28;10382;-52
2022/06/08 13:44:30;;;;;;;;;1.50;1.00;16.50;99.90;;;;;;4929926;28;10498;-49
2022/06/08 13:47:17;;;;;;;;;1.00;1.00;16.50;99.90;;;;;;4927749;28;10847;-52
2022/06/08 13:49:55;;;;;;;;;3.00;3.00;16.50;99.90;;;;;;4929481;28;11855;-50
2022/06/08 13:52:29;;;;;;;;;8.00;8.00;16.60;99.90;;;;;;4941053;28;11244;-53
2022/06/08 13:55:03;;;;;;;;;18.50;15.50;16.60;99.90;;;;;;4924919;28;11543;-51
2022/06/08 13:57:34;;;;;;;;;19.50;19.50;16.60;99.90;;;;;;4931458;28;11632;-53
2022/06/08 14:00:05;;;;;;;;;18.25;18.25;16.60;99.90;;;;;;4932553;28;11685;-54
2022/06/08 14:02:59;;;;;;;;;15.00;15.00;16.60;99.90;;;;;;4936619;28;11603;-53